sensor_id;sensor_type;location;lat;lon;timestamp;P1;durP1;ratioP1;P2;durP2;ratioP2
43152;SDS011;28756;49.064;9.290;2022-07-15T00:00:46;2.63;;;1.27;;
43152;SDS011;28756;49.064;9.290;2022-07-15T00:03:11;1.80;;;1.30;;
43152;SDS011;28756;49.064;9.290;2022-07-15T00:05:37;2.83;;;1.27;;
43152;SDS011;28756;49.064;9.290;2022-07-15T00:08:03;1.60;;;1.10;;
43152;SDS011;28756;49.064;9.290;2022-07-15T00:10:29;2.55;;;1.33;;
43152;SDS011;28756;49.064;9.290;2022-07-15T00:12:56;2.03;;;1.30;;
43152;SDS011;28756;49.064;9.290;2022-07-15T00:15:25;3.17;;;1.20;;
43152;SDS011;28756;49.064;9.290;2022-07-15T00:17:56;2.08;;;1.20;;
43152;SDS011;28756;49.064;9.290;2022-07-15T00:20:26;3.65;;;1.20;;
43152;SDS011;28756;49.064;9.290;2022-07-15T00:22:58;3.15;;;1.25;;
43152;SDS011;28756;49.064;9.290;2022-07-15T00:25:25;1.67;;;1.10;;
43152;SDS011;28756;49.064;9.290;2022-07-15T00:27:55;3.30;;;1.30;;
43152;SDS011;28756;49.064;9.290;2022-07-15T00:30:58;1.73;;;1.17;;
43152;SDS011;28756;49.064;9.290;2022-07-15T00:33:17;2.47;;;1.20;;
43152;SDS011;28756;49.064;9.290;2022-07-15T00:35:43;3.03;;;1.38;;
43152;SDS011;28756;49.064;9.290;2022-07-15T00:38:09;2.85;;;1.40;;
43152;SDS011;28756;49.064;9.290;2022-07-15T00:40:42;4.00;;;1.30;;
43152;SDS011;28756;49.064;9.290;2022-07-15T00:43:15;2.22;;;1.45;;
43152;SDS011;28756;49.064;9.290;2022-07-15T00:45:43;1.90;;;1.20;;
43152;SDS011;28756;49.064;9.290;2022-07-15T00:48:09;3.50;;;1.85;;
43152;SDS011;28756;49.064;9.290;2022-07-15T00:50:35;2.58;;;1.60;;
43152;SDS011;28756;49.064;9.290;2022-07-15T00:53:06;2.03;;;1.40;;
43152;SDS011;28756;49.064;9.290;2022-07-15T00:55:45;3.78;;;1.48;;
43152;SDS011;28756;49.064;9.290;2022-07-15T00:58:15;2.65;;;1.10;;
43152;SDS011;28756;49.064;9.290;2022-07-15T01:00:48;2.75;;;1.20;;
43152;SDS011;28756;49.064;9.290;2022-07-15T01:03:16;3.88;;;1.35;;
43152;SDS011;28756;49.064;9.290;2022-07-15T01:05:43;3.20;;;1.27;;
43152;SDS011;28756;49.064;9.290;2022-07-15T01:08:11;2.08;;;1.42;;
43152;SDS011;28756;49.064;9.290;2022-07-15T01:10:37;2.08;;;1.50;;
43152;SDS011;28756;49.064;9.290;2022-07-15T01:13:05;2.58;;;1.42;;
43152;SDS011;28756;49.064;9.290;2022-07-15T01:15:31;3.65;;;1.30;;
43152;SDS011;28756;49.064;9.290;2022-07-15T01:17:58;2.75;;;1.27;;
43152;SDS011;28756;49.064;9.290;2022-07-15T01:20:25;1.95;;;1.17;;
43152;SDS011;28756;49.064;9.290;2022-07-15T01:22:51;3.60;;;1.58;;
43152;SDS011;28756;49.064;9.290;2022-07-15T01:25:17;3.00;;;1.50;;
43152;SDS011;28756;49.064;9.290;2022-07-15T01:27:43;3.17;;;1.70;;
43152;SDS011;28756;49.064;9.290;2022-07-15T01:30:08;2.30;;;1.35;;
43152;SDS011;28756;49.064;9.290;2022-07-15T01:32:36;1.40;;;1.20;;
43152;SDS011;28756;49.064;9.290;2022-07-15T01:35:02;1.83;;;1.30;;
43152;SDS011;28756;49.064;9.290;2022-07-15T01:37:28;2.08;;;1.50;;
43152;SDS011;28756;49.064;9.290;2022-07-15T01:39:54;5.03;;;1.60;;
43152;SDS011;28756;49.064;9.290;2022-07-15T01:42:20;4.03;;;1.80;;
43152;SDS011;28756;49.064;9.290;2022-07-15T01:44:45;3.47;;;1.52;;
43152;SDS011;28756;49.064;9.290;2022-07-15T01:47:12;1.50;;;1.30;;
43152;SDS011;28756;49.064;9.290;2022-07-15T01:49:38;2.45;;;1.20;;
43152;SDS011;28756;49.064;9.290;2022-07-15T01:52:04;3.00;;;1.60;;
43152;SDS011;28756;49.064;9.290;2022-07-15T01:54:30;2.50;;;1.20;;
43152;SDS011;28756;49.064;9.290;2022-07-15T01:56:57;3.42;;;1.70;;
43152;SDS011;28756;49.064;9.290;2022-07-15T01:59:23;1.63;;;1.15;;
43152;SDS011;28756;49.064;9.290;2022-07-15T02:01:50;2.65;;;1.70;;
43152;SDS011;28756;49.064;9.290;2022-07-15T02:04:17;3.60;;;1.60;;
43152;SDS011;28756;49.064;9.290;2022-07-15T02:06:44;2.55;;;1.30;;
43152;SDS011;28756;49.064;9.290;2022-07-15T02:09:11;2.83;;;1.60;;
43152;SDS011;28756;49.064;9.290;2022-07-15T02:11:37;2.03;;;1.30;;
43152;SDS011;28756;49.064;9.290;2022-07-15T02:14:03;4.10;;;1.70;;
43152;SDS011;28756;49.064;9.290;2022-07-15T02:16:29;2.38;;;1.35;;
43152;SDS011;28756;49.064;9.290;2022-07-15T02:18:57;2.60;;;1.38;;
43152;SDS011;28756;49.064;9.290;2022-07-15T02:21:23;2.40;;;1.40;;
43152;SDS011;28756;49.064;9.290;2022-07-15T02:23:51;2.90;;;1.40;;
43152;SDS011;28756;49.064;9.290;2022-07-15T02:26:18;2.10;;;1.30;;
43152;SDS011;28756;49.064;9.290;2022-07-15T02:28:44;1.75;;;1.30;;
43152;SDS011;28756;49.064;9.290;2022-07-15T02:31:10;2.83;;;1.48;;
43152;SDS011;28756;49.064;9.290;2022-07-15T02:33:37;1.75;;;1.20;;
43152;SDS011;28756;49.064;9.290;2022-07-15T02:36:07;2.15;;;1.30;;
43152;SDS011;28756;49.064;9.290;2022-07-15T02:38:33;2.45;;;1.55;;
43152;SDS011;28756;49.064;9.290;2022-07-15T02:40:59;2.55;;;1.63;;
43152;SDS011;28756;49.064;9.290;2022-07-15T02:43:24;1.95;;;1.60;;
43152;SDS011;28756;49.064;9.290;2022-07-15T02:45:50;2.40;;;1.50;;
43152;SDS011;28756;49.064;9.290;2022-07-15T02:48:16;3.08;;;1.60;;
43152;SDS011;28756;49.064;9.290;2022-07-15T02:50:42;2.15;;;1.55;;
43152;SDS011;28756;49.064;9.290;2022-07-15T02:53:08;2.20;;;1.60;;
43152;SDS011;28756;49.064;9.290;2022-07-15T02:55:34;3.05;;;1.80;;
43152;SDS011;28756;49.064;9.290;2022-07-15T02:58:00;2.00;;;1.70;;
43152;SDS011;28756;49.064;9.290;2022-07-15T03:00:27;2.60;;;1.70;;
43152;SDS011;28756;49.064;9.290;2022-07-15T03:02:53;2.67;;;1.55;;
43152;SDS011;28756;49.064;9.290;2022-07-15T03:05:19;1.60;;;1.40;;
43152;SDS011;28756;49.064;9.290;2022-07-15T03:07:45;2.78;;;1.50;;
43152;SDS011;28756;49.064;9.290;2022-07-15T03:10:11;2.65;;;1.63;;
43152;SDS011;28756;49.064;9.290;2022-07-15T03:12:38;2.45;;;1.67;;
43152;SDS011;28756;49.064;9.290;2022-07-15T03:15:04;2.33;;;1.50;;
43152;SDS011;28756;49.064;9.290;2022-07-15T03:17:31;2.40;;;1.60;;
43152;SDS011;28756;49.064;9.290;2022-07-15T03:19:57;2.00;;;1.60;;
43152;SDS011;28756;49.064;9.290;2022-07-15T03:22:23;1.88;;;1.30;;
43152;SDS011;28756;49.064;9.290;2022-07-15T03:24:50;1.60;;;1.38;;
43152;SDS011;28756;49.064;9.290;2022-07-15T03:27:16;2.47;;;1.50;;
43152;SDS011;28756;49.064;9.290;2022-07-15T03:29:42;3.58;;;1.42;;
43152;SDS011;28756;49.064;9.290;2022-07-15T03:32:08;1.73;;;1.25;;
43152;SDS011;28756;49.064;9.290;2022-07-15T03:34:41;1.92;;;1.25;;
43152;SDS011;28756;49.064;9.290;2022-07-15T03:37:08;3.65;;;1.67;;
43152;SDS011;28756;49.064;9.290;2022-07-15T03:39:33;3.38;;;1.48;;
43152;SDS011;28756;49.064;9.290;2022-07-15T03:41:59;2.42;;;1.52;;
43152;SDS011;28756;49.064;9.290;2022-07-15T03:44:25;1.60;;;1.33;;
43152;SDS011;28756;49.064;9.290;2022-07-15T03:46:51;3.63;;;1.60;;
43152;SDS011;28756;49.064;9.290;2022-07-15T03:49:16;2.92;;;1.60;;
43152;SDS011;28756;49.064;9.290;2022-07-15T03:51:43;2.53;;;1.25;;
43152;SDS011;28756;49.064;9.290;2022-07-15T03:54:09;1.95;;;1.13;;
43152;SDS011;28756;49.064;9.290;2022-07-15T03:56:35;1.90;;;1.23;;
43152;SDS011;28756;49.064;9.290;2022-07-15T03:59:01;1.77;;;1.60;;
43152;SDS011;28756;49.064;9.290;2022-07-15T04:01:28;2.55;;;1.20;;
43152;SDS011;28756;49.064;9.290;2022-07-15T04:03:54;1.85;;;1.10;;
43152;SDS011;28756;49.064;9.290;2022-07-15T04:06:20;2.60;;;1.40;;
43152;SDS011;28756;49.064;9.290;2022-07-15T04:08:46;1.70;;;1.00;;
43152;SDS011;28756;49.064;9.290;2022-07-15T04:11:14;1.67;;;1.08;;
43152;SDS011;28756;49.064;9.290;2022-07-15T04:13:45;2.50;;;1.33;;
43152;SDS011;28756;49.064;9.290;2022-07-15T04:16:12;1.70;;;1.27;;
43152;SDS011;28756;49.064;9.290;2022-07-15T04:18:40;1.55;;;1.10;;
43152;SDS011;28756;49.064;9.290;2022-07-15T04:21:09;2.05;;;1.10;;
43152;SDS011;28756;49.064;9.290;2022-07-15T04:23:37;1.75;;;1.02;;
43152;SDS011;28756;49.064;9.290;2022-07-15T04:26:03;1.50;;;1.05;;
43152;SDS011;28756;49.064;9.290;2022-07-15T04:28:29;2.00;;;1.00;;
43152;SDS011;28756;49.064;9.290;2022-07-15T04:30:54;2.80;;;1.30;;
43152;SDS011;28756;49.064;9.290;2022-07-15T04:33:20;2.28;;;1.02;;
43152;SDS011;28756;49.064;9.290;2022-07-15T04:35:48;2.15;;;1.08;;
43152;SDS011;28756;49.064;9.290;2022-07-15T04:38:14;1.15;;;0.88;;
43152;SDS011;28756;49.064;9.290;2022-07-15T04:40:40;1.80;;;0.80;;
43152;SDS011;28756;49.064;9.290;2022-07-15T04:43:08;2.58;;;1.20;;
43152;SDS011;28756;49.064;9.290;2022-07-15T04:45:34;1.00;;;0.90;;
43152;SDS011;28756;49.064;9.290;2022-07-15T04:48:00;1.38;;;1.00;;
43152;SDS011;28756;49.064;9.290;2022-07-15T04:50:27;1.92;;;1.10;;
43152;SDS011;28756;49.064;9.290;2022-07-15T04:53:22;1.00;;;0.80;;
43152;SDS011;28756;49.064;9.290;2022-07-15T04:55:48;1.83;;;1.00;;
43152;SDS011;28756;49.064;9.290;2022-07-15T04:58:14;1.77;;;0.90;;
43152;SDS011;28756;49.064;9.290;2022-07-15T05:00:44;3.38;;;1.70;;
43152;SDS011;28756;49.064;9.290;2022-07-15T05:03:13;2.03;;;1.00;;
43152;SDS011;28756;49.064;9.290;2022-07-15T05:05:39;1.48;;;1.00;;
43152;SDS011;28756;49.064;9.290;2022-07-15T05:08:07;1.38;;;1.10;;
43152;SDS011;28756;49.064;9.290;2022-07-15T05:10:32;1.23;;;0.80;;
43152;SDS011;28756;49.064;9.290;2022-07-15T05:12:58;2.90;;;1.45;;
43152;SDS011;28756;49.064;9.290;2022-07-15T05:15:24;1.80;;;1.17;;
43152;SDS011;28756;49.064;9.290;2022-07-15T05:17:50;2.60;;;1.00;;
43152;SDS011;28756;49.064;9.290;2022-07-15T05:20:16;2.08;;;1.10;;
43152;SDS011;28756;49.064;9.290;2022-07-15T05:22:42;1.67;;;1.23;;
43152;SDS011;28756;49.064;9.290;2022-07-15T05:25:07;3.40;;;1.20;;
43152;SDS011;28756;49.064;9.290;2022-07-15T05:27:33;2.72;;;1.27;;
43152;SDS011;28756;49.064;9.290;2022-07-15T05:29:59;3.00;;;1.40;;
43152;SDS011;28756;49.064;9.290;2022-07-15T05:32:25;3.22;;;1.10;;
43152;SDS011;28756;49.064;9.290;2022-07-15T05:34:51;2.08;;;0.93;;
43152;SDS011;28756;49.064;9.290;2022-07-15T05:37:17;1.83;;;1.00;;
43152;SDS011;28756;49.064;9.290;2022-07-15T05:39:42;2.15;;;1.08;;
43152;SDS011;28756;49.064;9.290;2022-07-15T05:42:21;2.20;;;1.00;;
43152;SDS011;28756;49.064;9.290;2022-07-15T05:44:48;1.55;;;0.80;;
43152;SDS011;28756;49.064;9.290;2022-07-15T05:47:14;1.33;;;0.90;;
43152;SDS011;28756;49.064;9.290;2022-07-15T05:49:40;2.50;;;1.10;;
43152;SDS011;28756;49.064;9.290;2022-07-15T05:52:06;2.80;;;1.30;;
43152;SDS011;28756;49.064;9.290;2022-07-15T05:54:35;1.92;;;1.20;;
43152;SDS011;28756;49.064;9.290;2022-07-15T05:57:04;1.50;;;0.90;;
43152;SDS011;28756;49.064;9.290;2022-07-15T05:59:30;2.83;;;1.25;;
43152;SDS011;28756;49.064;9.290;2022-07-15T06:01:56;1.40;;;1.15;;
43152;SDS011;28756;49.064;9.290;2022-07-15T06:04:23;2.05;;;1.30;;
43152;SDS011;28756;49.064;9.290;2022-07-15T06:06:51;2.65;;;1.30;;
43152;SDS011;28756;49.064;9.290;2022-07-15T06:09:18;4.28;;;1.20;;
43152;SDS011;28756;49.064;9.290;2022-07-15T06:11:45;1.60;;;1.00;;
43152;SDS011;28756;49.064;9.290;2022-07-15T06:14:11;2.20;;;1.10;;
43152;SDS011;28756;49.064;9.290;2022-07-15T06:16:37;3.65;;;1.17;;
43152;SDS011;28756;49.064;9.290;2022-07-15T06:19:02;2.58;;;1.17;;
43152;SDS011;28756;49.064;9.290;2022-07-15T06:21:28;2.38;;;1.10;;
43152;SDS011;28756;49.064;9.290;2022-07-15T06:23:55;1.52;;;0.90;;
43152;SDS011;28756;49.064;9.290;2022-07-15T06:26:21;1.90;;;0.85;;
43152;SDS011;28756;49.064;9.290;2022-07-15T06:28:46;2.08;;;1.08;;
43152;SDS011;28756;49.064;9.290;2022-07-15T06:31:13;2.50;;;0.85;;
43152;SDS011;28756;49.064;9.290;2022-07-15T06:33:38;1.65;;;1.02;;
43152;SDS011;28756;49.064;9.290;2022-07-15T06:36:04;2.75;;;1.00;;
43152;SDS011;28756;49.064;9.290;2022-07-15T06:38:31;2.13;;;0.70;;
43152;SDS011;28756;49.064;9.290;2022-07-15T06:40:57;2.95;;;0.70;;
43152;SDS011;28756;49.064;9.290;2022-07-15T06:43:23;0.95;;;0.60;;
43152;SDS011;28756;49.064;9.290;2022-07-15T06:45:49;1.50;;;0.82;;
43152;SDS011;28756;49.064;9.290;2022-07-15T06:48:14;1.85;;;1.00;;
43152;SDS011;28756;49.064;9.290;2022-07-15T06:50:40;2.13;;;0.75;;
43152;SDS011;28756;49.064;9.290;2022-07-15T06:53:06;3.85;;;1.20;;
43152;SDS011;28756;49.064;9.290;2022-07-15T06:55:32;1.77;;;0.80;;
43152;SDS011;28756;49.064;9.290;2022-07-15T06:57:57;1.65;;;0.85;;
43152;SDS011;28756;49.064;9.290;2022-07-15T07:00:23;3.45;;;0.63;;
43152;SDS011;28756;49.064;9.290;2022-07-15T07:02:49;1.98;;;0.90;;
43152;SDS011;28756;49.064;9.290;2022-07-15T07:05:15;2.60;;;0.82;;
43152;SDS011;28756;49.064;9.290;2022-07-15T07:07:41;2.45;;;0.88;;
43152;SDS011;28756;49.064;9.290;2022-07-15T07:10:07;1.77;;;0.60;;
43152;SDS011;28756;49.064;9.290;2022-07-15T07:12:34;2.83;;;0.65;;
43152;SDS011;28756;49.064;9.290;2022-07-15T07:15:01;2.78;;;0.90;;
43152;SDS011;28756;49.064;9.290;2022-07-15T07:17:29;1.25;;;0.80;;
43152;SDS011;28756;49.064;9.290;2022-07-15T07:19:54;2.03;;;0.80;;
43152;SDS011;28756;49.064;9.290;2022-07-15T07:22:21;2.40;;;1.02;;
43152;SDS011;28756;49.064;9.290;2022-07-15T07:24:47;1.52;;;0.60;;
43152;SDS011;28756;49.064;9.290;2022-07-15T07:27:13;2.17;;;0.77;;
43152;SDS011;28756;49.064;9.290;2022-07-15T07:29:39;1.80;;;0.70;;
43152;SDS011;28756;49.064;9.290;2022-07-15T07:32:05;2.00;;;0.70;;
43152;SDS011;28756;49.064;9.290;2022-07-15T07:34:31;2.03;;;0.70;;
43152;SDS011;28756;49.064;9.290;2022-07-15T07:36:57;1.95;;;0.90;;
43152;SDS011;28756;49.064;9.290;2022-07-15T07:39:23;4.05;;;0.70;;
43152;SDS011;28756;49.064;9.290;2022-07-15T07:41:49;2.13;;;0.80;;
43152;SDS011;28756;49.064;9.290;2022-07-15T07:44:18;1.42;;;0.80;;
43152;SDS011;28756;49.064;9.290;2022-07-15T07:46:47;1.50;;;0.70;;
43152;SDS011;28756;49.064;9.290;2022-07-15T07:49:13;2.20;;;0.93;;
43152;SDS011;28756;49.064;9.290;2022-07-15T07:51:39;1.40;;;0.75;;
43152;SDS011;28756;49.064;9.290;2022-07-15T07:54:06;1.63;;;0.77;;
43152;SDS011;28756;49.064;9.290;2022-07-15T07:56:32;1.80;;;0.80;;
43152;SDS011;28756;49.064;9.290;2022-07-15T07:58:58;1.58;;;0.70;;
43152;SDS011;28756;49.064;9.290;2022-07-15T08:01:24;1.45;;;0.80;;
43152;SDS011;28756;49.064;9.290;2022-07-15T08:03:50;3.00;;;1.20;;
43152;SDS011;28756;49.064;9.290;2022-07-15T08:06:16;1.00;;;0.70;;
43152;SDS011;28756;49.064;9.290;2022-07-15T08:08:42;2.72;;;0.80;;
43152;SDS011;28756;49.064;9.290;2022-07-15T08:11:09;1.77;;;1.00;;
43152;SDS011;28756;49.064;9.290;2022-07-15T08:13:36;2.58;;;1.00;;
43152;SDS011;28756;49.064;9.290;2022-07-15T08:16:02;2.15;;;1.00;;
43152;SDS011;28756;49.064;9.290;2022-07-15T08:18:28;1.85;;;0.77;;
43152;SDS011;28756;49.064;9.290;2022-07-15T08:20:54;3.22;;;0.90;;
43152;SDS011;28756;49.064;9.290;2022-07-15T08:23:19;2.35;;;0.77;;
43152;SDS011;28756;49.064;9.290;2022-07-15T08:25:46;1.13;;;0.90;;
43152;SDS011;28756;49.064;9.290;2022-07-15T08:28:14;1.52;;;0.93;;
43152;SDS011;28756;49.064;9.290;2022-07-15T08:30:40;2.88;;;0.82;;
43152;SDS011;28756;49.064;9.290;2022-07-15T08:33:06;2.95;;;0.90;;
43152;SDS011;28756;49.064;9.290;2022-07-15T08:35:32;1.45;;;0.93;;
43152;SDS011;28756;49.064;9.290;2022-07-15T08:38:02;2.55;;;0.82;;
43152;SDS011;28756;49.064;9.290;2022-07-15T08:40:36;1.98;;;0.80;;
43152;SDS011;28756;49.064;9.290;2022-07-15T08:43:07;2.40;;;0.88;;
43152;SDS011;28756;49.064;9.290;2022-07-15T08:45:36;4.68;;;0.90;;
43152;SDS011;28756;49.064;9.290;2022-07-15T08:48:04;2.58;;;0.90;;
43152;SDS011;28756;49.064;9.290;2022-07-15T08:50:32;2.17;;;0.73;;
43152;SDS011;28756;49.064;9.290;2022-07-15T08:52:59;1.48;;;0.90;;
43152;SDS011;28756;49.064;9.290;2022-07-15T08:55:26;1.63;;;0.90;;
43152;SDS011;28756;49.064;9.290;2022-07-15T08:57:53;1.65;;;0.88;;
43152;SDS011;28756;49.064;9.290;2022-07-15T09:00:20;3.03;;;0.90;;
43152;SDS011;28756;49.064;9.290;2022-07-15T09:02:53;2.40;;;1.10;;
43152;SDS011;28756;49.064;9.290;2022-07-15T09:05:33;1.88;;;1.00;;
43152;SDS011;28756;49.064;9.290;2022-07-15T09:08:01;2.05;;;1.00;;
43152;SDS011;28756;49.064;9.290;2022-07-15T09:10:52;3.75;;;0.90;;
43152;SDS011;28756;49.064;9.290;2022-07-15T09:13:29;3.55;;;1.10;;
43152;SDS011;28756;49.064;9.290;2022-07-15T09:16:06;4.43;;;1.15;;
43152;SDS011;28756;49.064;9.290;2022-07-15T09:18:41;1.35;;;1.00;;
43152;SDS011;28756;49.064;9.290;2022-07-15T09:21:16;2.45;;;1.10;;
43152;SDS011;28756;49.064;9.290;2022-07-15T09:23:42;2.67;;;1.00;;
43152;SDS011;28756;49.064;9.290;2022-07-15T09:26:22;3.63;;;1.65;;
43152;SDS011;28756;49.064;9.290;2022-07-15T09:28:50;2.45;;;0.95;;
43152;SDS011;28756;49.064;9.290;2022-07-15T09:34:18;2.75;;;1.27;;
43152;SDS011;28756;49.064;9.290;2022-07-15T09:36:47;2.30;;;1.17;;
43152;SDS011;28756;49.064;9.290;2022-07-15T09:39:22;1.35;;;1.00;;
43152;SDS011;28756;49.064;9.290;2022-07-15T09:41:49;3.83;;;1.30;;
43152;SDS011;28756;49.064;9.290;2022-07-15T09:44:17;2.72;;;1.02;;
43152;SDS011;28756;49.064;9.290;2022-07-15T09:54:53;1.52;;;0.95;;
43152;SDS011;28756;49.064;9.290;2022-07-15T09:57:19;3.00;;;1.30;;
43152;SDS011;28756;49.064;9.290;2022-07-15T09:59:47;1.88;;;0.98;;
43152;SDS011;28756;49.064;9.290;2022-07-15T10:02:14;1.92;;;1.10;;
43152;SDS011;28756;49.064;9.290;2022-07-15T10:04:41;1.50;;;0.98;;
43152;SDS011;28756;49.064;9.290;2022-07-15T10:07:08;2.03;;;0.85;;
43152;SDS011;28756;49.064;9.290;2022-07-15T10:09:37;3.15;;;0.95;;
43152;SDS011;28756;49.064;9.290;2022-07-15T10:12:07;1.42;;;1.00;;
43152;SDS011;28756;49.064;9.290;2022-07-15T10:18:07;2.13;;;1.08;;
43152;SDS011;28756;49.064;9.290;2022-07-15T10:21:00;4.72;;;1.30;;
43152;SDS011;28756;49.064;9.290;2022-07-15T10:24:12;1.70;;;1.02;;
43152;SDS011;28756;49.064;9.290;2022-07-15T10:30:13;2.10;;;1.10;;
43152;SDS011;28756;49.064;9.290;2022-07-15T10:41:01;4.28;;;1.10;;
43152;SDS011;28756;49.064;9.290;2022-07-15T10:48:41;2.70;;;1.20;;
43152;SDS011;28756;49.064;9.290;2022-07-15T10:51:09;3.10;;;1.27;;
43152;SDS011;28756;49.064;9.290;2022-07-15T10:53:48;4.18;;;1.20;;
43152;SDS011;28756;49.064;9.290;2022-07-15T10:56:27;3.20;;;1.38;;
43152;SDS011;28756;49.064;9.290;2022-07-15T11:01:49;3.17;;;1.20;;
43152;SDS011;28756;49.064;9.290;2022-07-15T11:04:25;4.20;;;1.42;;
43152;SDS011;28756;49.064;9.290;2022-07-15T11:12:20;2.58;;;1.35;;
43152;SDS011;28756;49.064;9.290;2022-07-15T11:15:15;1.83;;;1.40;;
43152;SDS011;28756;49.064;9.290;2022-07-15T11:17:44;3.17;;;1.35;;
43152;SDS011;28756;49.064;9.290;2022-07-15T11:20:13;1.50;;;0.93;;
43152;SDS011;28756;49.064;9.290;2022-07-15T11:22:40;2.45;;;1.00;;
43152;SDS011;28756;49.064;9.290;2022-07-15T11:25:17;1.58;;;1.05;;
43152;SDS011;28756;49.064;9.290;2022-07-15T11:27:59;1.90;;;1.17;;
43152;SDS011;28756;49.064;9.290;2022-07-15T11:30:36;1.80;;;1.00;;
43152;SDS011;28756;49.064;9.290;2022-07-15T11:33:06;3.55;;;1.33;;
43152;SDS011;28756;49.064;9.290;2022-07-15T11:35:45;1.80;;;1.10;;
43152;SDS011;28756;49.064;9.290;2022-07-15T11:38:20;3.00;;;1.48;;
43152;SDS011;28756;49.064;9.290;2022-07-15T11:40:58;1.40;;;1.00;;
43152;SDS011;28756;49.064;9.290;2022-07-15T11:43:45;2.90;;;1.08;;
43152;SDS011;28756;49.064;9.290;2022-07-15T11:46:44;1.30;;;1.00;;
43152;SDS011;28756;49.064;9.290;2022-07-15T11:49:25;1.73;;;1.10;;
43152;SDS011;28756;49.064;9.290;2022-07-15T11:51:59;2.45;;;1.38;;
43152;SDS011;28756;49.064;9.290;2022-07-15T11:54:26;2.05;;;0.95;;
43152;SDS011;28756;49.064;9.290;2022-07-15T11:56:53;2.13;;;1.17;;
43152;SDS011;28756;49.064;9.290;2022-07-15T11:59:20;1.58;;;1.08;;
43152;SDS011;28756;49.064;9.290;2022-07-15T12:01:46;2.55;;;1.67;;
43152;SDS011;28756;49.064;9.290;2022-07-15T12:04:12;1.70;;;1.08;;
43152;SDS011;28756;49.064;9.290;2022-07-15T12:06:38;2.72;;;1.30;;
43152;SDS011;28756;49.064;9.290;2022-07-15T12:09:04;4.32;;;1.40;;
43152;SDS011;28756;49.064;9.290;2022-07-15T12:11:34;2.92;;;1.05;;
43152;SDS011;28756;49.064;9.290;2022-07-15T12:14:03;1.50;;;0.98;;
43152;SDS011;28756;49.064;9.290;2022-07-15T12:16:45;2.40;;;1.10;;
43152;SDS011;28756;49.064;9.290;2022-07-15T12:21:52;5.47;;;1.58;;
43152;SDS011;28756;49.064;9.290;2022-07-15T12:24:22;2.33;;;1.15;;
43152;SDS011;28756;49.064;9.290;2022-07-15T12:27:08;4.65;;;1.50;;
43152;SDS011;28756;49.064;9.290;2022-07-15T12:29:35;3.17;;;1.17;;
43152;SDS011;28756;49.064;9.290;2022-07-15T12:32:06;2.70;;;1.00;;
43152;SDS011;28756;49.064;9.290;2022-07-15T12:37:58;2.03;;;1.20;;
43152;SDS011;28756;49.064;9.290;2022-07-15T12:40:08;2.13;;;1.20;;
43152;SDS011;28756;49.064;9.290;2022-07-15T12:42:38;4.30;;;1.25;;
43152;SDS011;28756;49.064;9.290;2022-07-15T12:50:29;2.00;;;1.00;;
43152;SDS011;28756;49.064;9.290;2022-07-15T12:53:11;4.10;;;1.50;;
43152;SDS011;28756;49.064;9.290;2022-07-15T12:55:41;1.40;;;1.00;;
43152;SDS011;28756;49.064;9.290;2022-07-15T12:58:11;3.72;;;1.30;;
43152;SDS011;28756;49.064;9.290;2022-07-15T13:00:40;1.55;;;1.10;;
43152;SDS011;28756;49.064;9.290;2022-07-15T13:03:10;1.10;;;0.90;;
43152;SDS011;28756;49.064;9.290;2022-07-15T13:05:45;2.45;;;1.20;;
43152;SDS011;28756;49.064;9.290;2022-07-15T13:10:58;2.05;;;1.10;;
43152;SDS011;28756;49.064;9.290;2022-07-15T13:13:27;3.33;;;1.20;;
43152;SDS011;28756;49.064;9.290;2022-07-15T13:15:55;1.42;;;1.10;;
43152;SDS011;28756;49.064;9.290;2022-07-15T13:21:29;1.77;;;1.30;;
43152;SDS011;28756;49.064;9.290;2022-07-15T13:23:55;1.55;;;1.05;;
43152;SDS011;28756;49.064;9.290;2022-07-15T13:26:20;3.40;;;1.10;;
43152;SDS011;28756;49.064;9.290;2022-07-15T13:28:46;2.42;;;1.02;;
43152;SDS011;28756;49.064;9.290;2022-07-15T13:31:14;1.95;;;1.02;;
43152;SDS011;28756;49.064;9.290;2022-07-15T13:33:40;1.15;;;1.00;;
43152;SDS011;28756;49.064;9.290;2022-07-15T13:36:08;3.08;;;1.50;;
43152;SDS011;28756;49.064;9.290;2022-07-15T13:38:34;2.20;;;1.13;;
43152;SDS011;28756;49.064;9.290;2022-07-15T13:41:20;2.65;;;1.17;;
43152;SDS011;28756;49.064;9.290;2022-07-15T13:43:50;3.45;;;1.30;;
43152;SDS011;28756;49.064;9.290;2022-07-15T13:46:16;2.40;;;1.02;;
43152;SDS011;28756;49.064;9.290;2022-07-15T13:48:42;2.03;;;1.02;;
43152;SDS011;28756;49.064;9.290;2022-07-15T13:51:07;1.50;;;1.15;;
43152;SDS011;28756;49.064;9.290;2022-07-15T13:53:49;1.70;;;1.20;;
43152;SDS011;28756;49.064;9.290;2022-07-15T13:56:17;1.88;;;1.20;;
43152;SDS011;28756;49.064;9.290;2022-07-15T13:58:43;2.75;;;1.17;;
43152;SDS011;28756;49.064;9.290;2022-07-15T14:01:09;3.28;;;1.20;;
43152;SDS011;28756;49.064;9.290;2022-07-15T14:03:35;1.88;;;1.23;;
43152;SDS011;28756;49.064;9.290;2022-07-15T14:06:01;1.90;;;1.20;;
43152;SDS011;28756;49.064;9.290;2022-07-15T14:08:27;2.25;;;1.17;;
43152;SDS011;28756;49.064;9.290;2022-07-15T14:10:52;2.53;;;1.20;;
43152;SDS011;28756;49.064;9.290;2022-07-15T14:13:18;1.63;;;1.20;;
43152;SDS011;28756;49.064;9.290;2022-07-15T14:15:44;2.30;;;1.20;;
43152;SDS011;28756;49.064;9.290;2022-07-15T14:18:10;2.75;;;1.20;;
43152;SDS011;28756;49.064;9.290;2022-07-15T14:20:36;2.67;;;1.30;;
43152;SDS011;28756;49.064;9.290;2022-07-15T14:23:02;1.55;;;1.10;;
43152;SDS011;28756;49.064;9.290;2022-07-15T14:25:28;2.75;;;1.10;;
43152;SDS011;28756;49.064;9.290;2022-07-15T14:27:55;1.50;;;1.10;;
43152;SDS011;28756;49.064;9.290;2022-07-15T14:30:22;2.33;;;1.33;;
43152;SDS011;28756;49.064;9.290;2022-07-15T14:32:48;2.53;;;1.10;;
43152;SDS011;28756;49.064;9.290;2022-07-15T14:35:13;2.30;;;1.20;;
43152;SDS011;28756;49.064;9.290;2022-07-15T14:37:40;1.80;;;1.20;;
43152;SDS011;28756;49.064;9.290;2022-07-15T14:40:06;2.45;;;1.50;;
43152;SDS011;28756;49.064;9.290;2022-07-15T14:42:33;1.77;;;1.30;;
43152;SDS011;28756;49.064;9.290;2022-07-15T14:44:59;2.45;;;1.30;;
43152;SDS011;28756;49.064;9.290;2022-07-15T14:47:25;1.52;;;1.02;;
43152;SDS011;28756;49.064;9.290;2022-07-15T14:49:51;3.30;;;1.27;;
43152;SDS011;28756;49.064;9.290;2022-07-15T14:52:17;1.65;;;1.10;;
43152;SDS011;28756;49.064;9.290;2022-07-15T14:54:43;2.85;;;1.10;;
43152;SDS011;28756;49.064;9.290;2022-07-15T14:57:09;2.30;;;1.30;;
43152;SDS011;28756;49.064;9.290;2022-07-15T14:59:35;2.72;;;1.40;;
43152;SDS011;28756;49.064;9.290;2022-07-15T15:02:05;1.95;;;1.20;;
43152;SDS011;28756;49.064;9.290;2022-07-15T15:04:32;1.95;;;1.27;;
43152;SDS011;28756;49.064;9.290;2022-07-15T15:06:59;1.60;;;1.20;;
43152;SDS011;28756;49.064;9.290;2022-07-15T15:09:25;2.97;;;1.10;;
43152;SDS011;28756;49.064;9.290;2022-07-15T15:11:51;1.30;;;1.13;;
43152;SDS011;28756;49.064;9.290;2022-07-15T15:14:17;2.95;;;1.38;;
43152;SDS011;28756;49.064;9.290;2022-07-15T15:16:43;1.90;;;1.20;;
43152;SDS011;28756;49.064;9.290;2022-07-15T15:19:09;1.85;;;1.08;;
43152;SDS011;28756;49.064;9.290;2022-07-15T15:21:34;1.98;;;1.20;;
43152;SDS011;28756;49.064;9.290;2022-07-15T15:24:01;1.67;;;1.20;;
43152;SDS011;28756;49.064;9.290;2022-07-15T15:26:28;1.30;;;1.17;;
43152;SDS011;28756;49.064;9.290;2022-07-15T15:28:55;5.35;;;1.20;;
43152;SDS011;28756;49.064;9.290;2022-07-15T15:31:21;2.83;;;1.23;;
43152;SDS011;28756;49.064;9.290;2022-07-15T15:33:50;2.42;;;1.48;;
43152;SDS011;28756;49.064;9.290;2022-07-15T15:36:16;2.13;;;1.20;;
43152;SDS011;28756;49.064;9.290;2022-07-15T15:38:42;2.00;;;1.23;;
43152;SDS011;28756;49.064;9.290;2022-07-15T15:41:08;1.77;;;1.23;;
43152;SDS011;28756;49.064;9.290;2022-07-15T15:43:33;2.33;;;1.42;;
43152;SDS011;28756;49.064;9.290;2022-07-15T15:46:00;2.13;;;1.20;;
43152;SDS011;28756;49.064;9.290;2022-07-15T15:48:26;1.63;;;1.10;;
43152;SDS011;28756;49.064;9.290;2022-07-15T15:50:52;4.40;;;1.38;;